createdAt,value
2019-05-18T00:02:11.136Z,11.53
2019-05-18T00:04:39.534Z,8.93
2019-05-18T00:07:07.941Z,8.00
2019-05-18T00:09:36.369Z,8.35
2019-05-18T00:12:04.861Z,9.50
2019-05-18T00:14:33.309Z,9.18
2019-05-18T00:17:01.757Z,9.55
2019-05-18T00:19:30.135Z,8.03
2019-05-18T00:21:58.563Z,7.85
2019-05-18T00:24:26.961Z,8.40
2019-05-18T00:27:14.727Z,8.10
2019-05-18T00:29:43.121Z,8.60
2019-05-18T00:32:11.550Z,8.35
2019-05-18T00:34:40.023Z,8.83
2019-05-18T00:37:08.457Z,8.90
2019-05-18T00:39:36.850Z,8.80
2019-05-18T00:42:05.262Z,9.23
2019-05-18T00:44:33.666Z,10.10
2019-05-18T00:47:02.118Z,8.10
2019-05-18T00:49:30.887Z,8.85
2019-05-18T00:51:59.298Z,7.30
2019-05-18T00:54:27.697Z,7.40
2019-05-18T00:56:56.123Z,10.23
2019-05-18T00:59:24.575Z,7.60
2019-05-18T01:01:53.031Z,7.75
2019-05-18T01:04:22.238Z,8.63
2019-05-18T01:06:50.946Z,7.55
2019-05-18T01:09:19.368Z,6.85
2019-05-18T01:11:47.761Z,7.57
2019-05-18T01:14:16.196Z,9.10
2019-05-18T01:16:45.608Z,7.80
2019-05-18T01:19:14.322Z,8.58
2019-05-18T01:21:42.707Z,7.05
2019-05-18T01:24:11.135Z,7.20
2019-05-18T01:26:39.530Z,9.74
2019-05-18T01:29:08.186Z,8.20
2019-05-18T01:31:36.741Z,9.80
2019-05-18T01:34:05.167Z,8.95
2019-05-18T01:36:33.580Z,8.38
2019-05-18T01:39:02.000Z,10.68
2019-05-18T01:41:30.405Z,11.15
2019-05-18T01:43:58.832Z,10.13
2019-05-18T01:46:27.242Z,8.85
2019-05-18T01:48:55.693Z,7.08
2019-05-18T01:51:24.099Z,8.85
2019-05-18T01:53:52.527Z,7.33
2019-05-18T01:56:20.985Z,7.45
2019-05-18T01:58:49.432Z,9.90
2019-05-18T02:01:17.847Z,9.60
2019-05-18T02:03:46.263Z,8.88
2019-05-18T02:06:14.694Z,7.60
2019-05-18T02:08:43.102Z,7.92
2019-05-18T02:11:11.536Z,7.22
2019-05-18T02:13:39.997Z,7.62
2019-05-18T02:16:08.417Z,8.28
2019-05-18T02:18:36.836Z,8.55
2019-05-18T02:21:05.248Z,10.10
2019-05-18T02:23:33.641Z,8.63
2019-05-18T02:26:02.067Z,7.62
2019-05-18T02:28:30.481Z,7.53
2019-05-18T02:30:58.898Z,9.98
2019-05-18T02:33:46.731Z,7.47
2019-05-18T02:36:15.141Z,7.90
2019-05-18T02:38:43.543Z,8.13
2019-05-18T02:41:11.959Z,7.58
2019-05-18T02:43:40.366Z,7.75
2019-05-18T02:46:09.125Z,8.68
2019-05-18T02:48:48.577Z,8.88
2019-05-18T02:51:11.452Z,9.40
2019-05-18T02:53:38.466Z,9.43
2019-05-18T02:56:06.884Z,7.50
2019-05-18T02:58:35.608Z,9.13
2019-05-18T03:01:04.421Z,8.10
2019-05-18T03:03:32.820Z,8.90
2019-05-18T03:06:01.299Z,8.28
2019-05-18T03:08:29.818Z,10.47
2019-05-18T03:10:58.311Z,7.45
2019-05-18T03:13:26.727Z,9.40
2019-05-18T03:15:55.194Z,8.25
2019-05-18T03:18:23.601Z,9.30
2019-05-18T03:20:52.118Z,9.17
2019-05-18T03:23:20.539Z,10.55
2019-05-18T03:25:49.018Z,11.00
2019-05-18T03:28:17.411Z,8.03
2019-05-18T03:30:45.835Z,9.03
2019-05-18T03:33:14.251Z,10.47
2019-05-18T03:35:42.669Z,9.28
2019-05-18T03:38:11.225Z,8.98
2019-05-18T03:40:39.699Z,11.45
2019-05-18T03:43:08.456Z,8.00
2019-05-18T03:45:36.862Z,8.08
2019-05-18T03:48:05.333Z,8.42
2019-05-18T03:50:33.753Z,8.63
2019-05-18T03:53:02.183Z,10.43
2019-05-18T03:55:30.771Z,10.85
2019-05-18T03:57:59.173Z,8.03
2019-05-18T04:00:27.581Z,8.55
2019-05-18T04:02:55.990Z,9.53
2019-05-18T04:05:24.670Z,9.78
2019-05-18T04:07:53.084Z,8.23
2019-05-18T04:10:27.285Z,7.83
2019-05-18T04:12:55.769Z,9.08
2019-05-18T04:15:24.179Z,9.98
2019-05-18T04:17:52.604Z,8.33
2019-05-18T04:20:21.300Z,8.23
2019-05-18T04:22:49.712Z,8.10
2019-05-18T04:25:18.167Z,7.40
2019-05-18T04:27:46.818Z,9.45
2019-05-18T04:30:15.567Z,8.58
2019-05-18T04:32:43.984Z,10.55
2019-05-18T04:35:12.453Z,9.43
2019-05-18T04:37:41.162Z,9.03
2019-05-18T04:40:09.997Z,9.15
2019-05-18T04:42:38.414Z,8.85
2019-05-18T04:45:08.673Z,8.33
2019-05-18T04:47:37.099Z,8.65
2019-05-18T04:50:07.431Z,9.50
2019-05-18T04:52:35.851Z,9.93
2019-05-18T04:55:05.703Z,9.15
2019-05-18T04:57:34.109Z,9.93
2019-05-18T05:00:02.695Z,11.22
2019-05-18T05:02:31.103Z,9.28
2019-05-18T05:04:59.517Z,9.48
2019-05-18T05:07:27.929Z,9.23
2019-05-18T05:09:56.337Z,9.03
2019-05-18T05:12:24.751Z,8.15
2019-05-18T05:14:53.153Z,8.03
2019-05-18T05:17:21.816Z,9.60
2019-05-18T05:19:50.237Z,10.28
2019-05-18T05:22:18.723Z,9.18
2019-05-18T05:24:47.152Z,8.68
2019-05-18T05:27:15.800Z,9.93
2019-05-18T05:29:44.193Z,9.93
2019-05-18T05:32:12.622Z,8.75
2019-05-18T05:34:41.015Z,11.40
2019-05-18T05:37:09.432Z,11.43
2019-05-18T05:39:37.853Z,9.45
2019-05-18T05:42:06.416Z,10.18
2019-05-18T05:44:35.141Z,10.78
2019-05-18T05:47:03.570Z,9.68
2019-05-18T05:49:31.979Z,9.95
2019-05-18T05:52:00.399Z,10.03
2019-05-18T05:54:29.710Z,8.85
2019-05-18T05:56:58.126Z,9.63
2019-05-18T05:59:26.533Z,9.58
2019-05-18T06:01:55.161Z,10.58
2019-05-18T06:04:23.585Z,10.42
2019-05-18T06:06:51.993Z,9.98
2019-05-18T06:09:20.411Z,10.10
2019-05-18T06:11:48.810Z,9.90
2019-05-18T06:14:17.238Z,9.93
2019-05-18T06:16:45.717Z,9.83
2019-05-18T06:19:14.130Z,9.98
2019-05-18T06:21:42.547Z,8.00
2019-05-18T06:24:10.973Z,9.43
2019-05-18T06:26:39.401Z,9.60
2019-05-18T06:29:08.099Z,10.30
2019-05-18T06:31:36.496Z,8.13
2019-05-18T06:34:04.912Z,10.10
2019-05-18T06:36:33.330Z,8.88
2019-05-18T06:39:01.744Z,9.67
2019-05-18T06:41:30.168Z,8.90
2019-05-18T06:43:58.606Z,9.23
2019-05-18T06:46:27.056Z,9.18
2019-05-18T06:48:55.454Z,9.20
2019-05-18T06:51:23.871Z,8.73
2019-05-18T06:53:53.239Z,10.00
2019-05-18T06:56:22.599Z,9.38
2019-05-18T06:58:53.037Z,8.65
2019-05-18T07:01:21.472Z,9.70
2019-05-18T07:03:49.870Z,8.83
2019-05-18T07:06:18.307Z,9.10
2019-05-18T07:08:46.729Z,9.38
2019-05-18T07:11:15.203Z,8.88
2019-05-18T07:13:43.598Z,10.95
2019-05-18T07:16:12.009Z,10.85
2019-05-18T07:18:40.424Z,10.88
2019-05-18T07:21:21.368Z,8.65
2019-05-18T07:23:39.175Z,9.60
2019-05-18T07:26:07.662Z,9.23
2019-05-18T07:28:36.067Z,8.27
2019-05-18T07:31:04.721Z,8.45
2019-05-18T07:33:33.122Z,9.35
2019-05-18T07:36:01.530Z,10.25
2019-05-18T07:38:29.934Z,9.33
2019-05-18T07:40:58.376Z,8.03
2019-05-18T07:43:27.685Z,8.78
2019-05-18T07:45:56.170Z,9.73
2019-05-18T07:48:24.567Z,8.03
2019-05-18T07:50:52.979Z,8.93
2019-05-18T07:53:21.376Z,9.13
2019-05-18T07:55:50.082Z,8.40
2019-05-18T07:58:18.614Z,8.13
2019-05-18T08:00:47.097Z,7.75
2019-05-18T08:03:15.731Z,8.33
2019-05-18T08:05:44.125Z,8.23
2019-05-18T08:08:12.972Z,7.87
2019-05-18T08:10:43.618Z,9.03
2019-05-18T08:13:11.579Z,9.33
2019-05-18T08:15:39.964Z,9.53
2019-05-18T08:18:08.863Z,10.02
2019-05-18T08:20:38.057Z,12.05
2019-05-18T08:23:06.478Z,11.10
2019-05-18T08:25:34.890Z,11.38
2019-05-18T08:28:03.311Z,9.97
2019-05-18T08:30:31.716Z,10.25
2019-05-18T08:33:00.147Z,9.10
2019-05-18T08:35:28.538Z,10.20
2019-05-18T08:37:56.950Z,11.40
2019-05-18T08:40:25.362Z,10.98
2019-05-18T08:42:53.998Z,11.83
2019-05-18T08:45:22.398Z,10.30
2019-05-18T08:47:50.823Z,11.60
2019-05-18T08:50:19.216Z,11.55
2019-05-18T08:52:47.630Z,9.35
2019-05-18T08:55:16.879Z,9.38
2019-05-18T08:57:45.341Z,13.18
2019-05-18T09:00:14.172Z,12.80
2019-05-18T09:02:42.585Z,11.50
2019-05-18T09:05:11.357Z,10.72
2019-05-18T09:07:39.776Z,11.63
2019-05-18T09:10:09.566Z,10.95
2019-05-18T09:12:37.982Z,11.22
2019-05-18T09:15:08.003Z,11.45
2019-05-18T09:17:36.414Z,9.50
2019-05-18T09:20:08.265Z,10.23
2019-05-18T09:22:36.678Z,10.30
2019-05-18T09:25:08.499Z,10.65
2019-05-18T09:27:36.944Z,12.53
2019-05-18T09:30:09.562Z,11.38
2019-05-18T09:32:38.330Z,11.63
2019-05-18T09:35:08.756Z,11.45
2019-05-18T09:37:37.583Z,13.05
2019-05-18T09:40:07.499Z,13.98
2019-05-18T09:42:38.786Z,13.68
2019-05-18T09:45:08.040Z,14.28
2019-05-18T09:47:36.451Z,13.45
2019-05-18T09:50:06.411Z,16.17
2019-05-18T09:52:44.990Z,16.07
2019-05-18T09:55:07.097Z,15.63
2019-05-18T09:57:35.499Z,15.55
2019-05-18T10:00:10.487Z,15.00
2019-05-18T10:02:39.066Z,15.03
2019-05-18T10:05:08.523Z,15.58
2019-05-18T10:07:37.165Z,16.07
2019-05-18T10:10:08.834Z,14.98
2019-05-18T10:12:37.403Z,16.67
2019-05-18T10:15:09.263Z,14.93
2019-05-18T10:17:37.677Z,12.70
2019-05-18T10:20:07.992Z,13.58
2019-05-18T10:22:36.397Z,11.65
2019-05-18T10:25:06.769Z,13.70
2019-05-18T10:27:35.169Z,11.33
2019-05-18T10:30:05.921Z,12.43
2019-05-18T10:32:34.398Z,10.47
2019-05-18T10:35:02.811Z,8.83
2019-05-18T10:37:31.205Z,8.95
2019-05-18T10:39:59.624Z,10.23
2019-05-18T10:42:28.013Z,8.07
2019-05-18T10:44:56.439Z,8.00
2019-05-18T10:47:24.852Z,10.97
2019-05-18T10:49:53.257Z,7.90
2019-05-18T10:52:21.851Z,7.37
2019-05-18T10:54:50.342Z,7.95
2019-05-18T10:57:18.804Z,8.60
2019-05-18T10:59:47.186Z,8.58
2019-05-18T11:02:15.590Z,10.60
2019-05-18T11:04:44.003Z,9.23
2019-05-18T11:07:12.406Z,7.37
2019-05-18T11:09:40.831Z,7.85
2019-05-18T11:12:09.287Z,6.67
2019-05-18T11:14:37.708Z,5.53
2019-05-18T11:17:06.111Z,6.23
2019-05-18T11:19:34.540Z,7.42
2019-05-18T11:22:02.938Z,6.70
2019-05-18T11:24:31.584Z,8.50
2019-05-18T11:27:00.037Z,7.40
2019-05-18T11:29:28.423Z,6.87
2019-05-18T11:31:56.911Z,7.15
2019-05-18T11:34:25.325Z,7.83
2019-05-18T11:36:53.723Z,7.90
2019-05-18T11:39:22.229Z,6.97
2019-05-18T11:41:50.673Z,6.60
2019-05-18T11:44:19.898Z,7.85
2019-05-18T11:46:48.310Z,7.92
2019-05-18T11:49:17.631Z,7.70
2019-05-18T11:51:46.036Z,7.80
2019-05-18T11:54:14.681Z,6.60
2019-05-18T11:56:43.188Z,9.80
2019-05-18T11:59:11.585Z,8.37
2019-05-18T12:01:39.999Z,5.95
2019-05-18T12:04:08.402Z,5.80
2019-05-18T12:06:36.924Z,5.78
2019-05-18T12:09:05.864Z,6.08
2019-05-18T12:11:34.312Z,5.40
2019-05-18T12:14:02.747Z,5.97
2019-05-18T12:16:31.143Z,6.25
2019-05-18T12:18:59.538Z,4.60
2019-05-18T12:21:27.975Z,4.75
2019-05-18T12:23:56.401Z,4.57
2019-05-18T12:26:25.751Z,6.72
2019-05-18T12:28:54.146Z,4.10
2019-05-18T12:31:22.623Z,4.50
2019-05-18T12:33:51.033Z,5.03
2019-05-18T12:36:19.441Z,3.52
2019-05-18T12:38:47.859Z,4.15
2019-05-18T12:41:17.915Z,4.60
2019-05-18T12:43:46.318Z,5.42
2019-05-18T12:46:14.753Z,4.90
2019-05-18T12:48:43.164Z,5.20
2019-05-18T12:51:11.631Z,5.87
2019-05-18T12:53:40.048Z,6.75
2019-05-18T12:56:08.443Z,5.28
2019-05-18T12:58:37.716Z,5.20
2019-05-18T13:01:06.342Z,5.80
2019-05-18T13:03:34.762Z,6.97
2019-05-18T13:06:03.533Z,5.62
2019-05-18T13:08:32.002Z,6.65
2019-05-18T13:11:00.483Z,6.33
2019-05-18T13:13:28.977Z,7.67
2019-05-18T13:15:57.376Z,5.97
2019-05-18T13:18:25.782Z,6.00
2019-05-18T13:20:54.182Z,6.42
2019-05-18T13:23:22.590Z,6.97
2019-05-18T13:25:50.993Z,7.37
2019-05-18T13:28:19.590Z,8.15
2019-05-18T13:30:48.275Z,7.47
2019-05-18T13:33:16.896Z,6.30
2019-05-18T13:35:45.767Z,6.40
2019-05-18T13:38:14.880Z,6.28
2019-05-18T13:40:43.425Z,6.10
2019-05-18T13:43:11.911Z,6.37
2019-05-18T13:45:40.316Z,5.75
2019-05-18T13:48:08.724Z,3.85
2019-05-18T13:50:37.131Z,5.83
2019-05-18T13:53:05.678Z,5.00
2019-05-18T13:55:34.255Z,5.08
2019-05-18T13:58:02.679Z,5.00
2019-05-18T14:00:31.074Z,6.08
2019-05-18T14:02:59.517Z,5.87
2019-05-18T14:05:28.078Z,3.83
2019-05-18T14:07:56.479Z,4.78
2019-05-18T14:10:24.945Z,4.45
2019-05-18T14:12:53.530Z,3.90
2019-05-18T14:15:23.087Z,3.87
2019-05-18T14:17:51.813Z,5.75
2019-05-18T14:20:20.650Z,3.43
2019-05-18T14:22:49.050Z,4.10
2019-05-18T14:25:19.854Z,3.05
2019-05-18T14:27:48.006Z,4.07
2019-05-18T14:30:16.499Z,5.67
2019-05-18T14:32:45.793Z,3.50
2019-05-18T14:35:14.194Z,4.07
2019-05-18T14:37:42.599Z,4.30
2019-05-18T14:40:12.251Z,3.37
2019-05-18T14:42:40.715Z,3.53
2019-05-18T14:45:09.777Z,3.90
2019-05-18T14:47:38.185Z,4.03
2019-05-18T14:50:07.545Z,4.00
2019-05-18T14:52:36.411Z,4.53
2019-05-18T14:55:06.434Z,4.08
2019-05-18T14:57:34.841Z,4.27
2019-05-18T15:00:04.349Z,5.50
2019-05-18T15:02:32.761Z,4.30
2019-05-18T15:05:01.271Z,3.65
2019-05-18T15:07:29.786Z,4.28
2019-05-18T15:09:58.317Z,4.40
2019-05-18T15:12:26.731Z,4.57
2019-05-18T15:14:55.178Z,4.87
2019-05-18T15:17:23.774Z,3.62
2019-05-18T15:19:52.706Z,3.75
2019-05-18T15:22:21.108Z,4.25
2019-05-18T15:24:49.613Z,3.75
2019-05-18T15:27:18.181Z,3.20
2019-05-18T15:29:46.650Z,4.65
2019-05-18T15:32:15.044Z,3.85
2019-05-18T15:34:43.756Z,3.83
2019-05-18T15:37:12.307Z,4.40
2019-05-18T15:39:41.038Z,3.85
2019-05-18T15:42:09.714Z,5.28
2019-05-18T15:44:38.293Z,4.40
2019-05-18T15:47:06.809Z,4.92
2019-05-18T15:49:35.406Z,4.07
2019-05-18T15:52:03.879Z,4.87
2019-05-18T15:54:32.330Z,3.72
2019-05-18T15:57:00.723Z,6.12
2019-05-18T15:59:29.395Z,4.47
2019-05-18T16:01:57.819Z,4.70
2019-05-18T16:04:26.302Z,5.92
2019-05-18T16:06:54.750Z,4.67
2019-05-18T16:09:23.150Z,7.10
2019-05-18T16:11:51.732Z,4.87
2019-05-18T16:14:20.126Z,6.75
2019-05-18T16:16:48.608Z,6.33
2019-05-18T16:19:17.143Z,7.45
2019-05-18T16:21:45.849Z,7.08
2019-05-18T16:24:14.376Z,7.33
2019-05-18T16:26:42.831Z,6.73
2019-05-18T16:29:11.422Z,7.92
2019-05-18T16:31:39.840Z,5.90
2019-05-18T16:34:08.278Z,6.17
2019-05-18T16:36:36.697Z,5.83
2019-05-18T16:39:06.942Z,6.28
2019-05-18T16:41:35.370Z,6.22
2019-05-18T16:44:03.811Z,6.10
2019-05-18T16:46:32.422Z,6.55
2019-05-18T16:49:00.823Z,6.30
2019-05-18T16:51:29.242Z,7.47
2019-05-18T16:53:57.724Z,6.70
2019-05-18T16:56:34.960Z,9.48
2019-05-18T16:58:56.702Z,8.93
2019-05-18T17:01:25.171Z,10.25
2019-05-18T17:03:53.875Z,10.88
2019-05-18T17:06:22.317Z,10.90
2019-05-18T17:08:50.806Z,10.15
2019-05-18T17:11:19.212Z,9.78
2019-05-18T17:13:47.605Z,9.05
2019-05-18T17:16:16.022Z,13.75
2019-05-18T17:18:44.470Z,8.80
2019-05-18T17:21:12.889Z,10.48
2019-05-18T17:23:41.294Z,10.75
2019-05-18T17:26:09.956Z,10.50
2019-05-18T17:28:38.528Z,13.22
2019-05-18T17:31:06.934Z,11.78
2019-05-18T17:33:35.569Z,8.20
2019-05-18T17:36:04.046Z,14.50
2019-05-18T17:38:32.551Z,8.90
2019-05-18T17:41:00.972Z,8.90
2019-05-18T17:43:29.446Z,10.18
2019-05-18T17:45:57.906Z,8.48
2019-05-18T17:48:27.093Z,8.80
2019-05-18T17:50:55.497Z,9.00
2019-05-18T17:53:23.939Z,9.25
2019-05-18T17:55:52.475Z,10.13
2019-05-18T17:58:20.892Z,8.93
2019-05-18T18:00:49.660Z,8.23
2019-05-18T18:03:18.074Z,7.95
2019-05-18T18:05:46.522Z,9.40
2019-05-18T18:08:15.014Z,8.38
2019-05-18T18:10:44.182Z,7.97
2019-05-18T18:13:12.653Z,8.03
2019-05-18T18:15:41.058Z,7.50
2019-05-18T18:18:09.462Z,8.33
2019-05-18T18:20:37.892Z,8.43
2019-05-18T18:23:06.379Z,8.55
2019-05-18T18:25:34.786Z,8.73
2019-05-18T18:28:03.196Z,7.90
2019-05-18T18:30:31.598Z,8.95
2019-05-18T18:33:00.019Z,8.50
2019-05-18T18:35:28.494Z,9.20
2019-05-18T18:37:56.974Z,7.67
2019-05-18T18:40:25.380Z,8.45
2019-05-18T18:42:53.920Z,10.05
2019-05-18T18:45:22.610Z,8.75
2019-05-18T18:47:51.013Z,8.10
2019-05-18T18:50:19.498Z,8.53
2019-05-18T18:52:47.898Z,8.23
2019-05-18T18:55:16.381Z,7.20
2019-05-18T18:57:44.855Z,7.80
2019-05-18T19:00:14.008Z,9.38
2019-05-18T19:02:42.407Z,7.03
2019-05-18T19:05:11.167Z,9.40
2019-05-18T19:07:39.570Z,9.00
2019-05-18T19:10:09.054Z,9.08
2019-05-18T19:12:37.483Z,7.92
2019-05-18T19:15:07.523Z,9.20
2019-05-18T19:17:35.927Z,9.28
2019-05-18T19:20:05.599Z,9.48
2019-05-18T19:22:33.991Z,9.93
2019-05-18T19:25:02.401Z,9.38
2019-05-18T19:27:30.804Z,9.23
2019-05-18T19:29:59.218Z,10.75
2019-05-18T19:32:27.629Z,9.93
2019-05-18T19:34:56.026Z,10.10
2019-05-18T19:37:26.350Z,9.10
2019-05-18T19:39:54.888Z,8.88
2019-05-18T19:42:23.294Z,9.63
2019-05-18T19:44:51.693Z,10.03
2019-05-18T19:47:20.101Z,9.88
2019-05-18T19:49:48.537Z,10.98
2019-05-18T19:52:16.996Z,10.53
2019-05-18T19:54:45.403Z,11.43
2019-05-18T19:57:13.859Z,11.73
2019-05-18T19:59:42.326Z,10.90
2019-05-18T20:02:10.753Z,10.25
2019-05-18T20:04:39.165Z,10.65
2019-05-18T20:07:07.607Z,10.10
2019-05-18T20:09:36.959Z,9.58
2019-05-18T20:12:05.426Z,11.55
2019-05-18T20:14:33.827Z,11.70
2019-05-18T20:17:02.295Z,9.55
2019-05-18T20:19:38.807Z,9.83
2019-05-18T20:22:00.875Z,8.93
2019-05-18T20:24:29.287Z,9.18
2019-05-18T20:26:57.734Z,10.82
2019-05-18T20:29:26.134Z,9.20
2019-05-18T20:31:54.629Z,10.72
2019-05-18T20:34:23.022Z,11.55
2019-05-18T20:36:51.590Z,14.98
2019-05-18T20:39:19.985Z,10.93
2019-05-18T20:41:48.403Z,11.60
2019-05-18T20:44:16.814Z,12.30
2019-05-18T20:46:45.219Z,14.70
2019-05-18T20:49:13.638Z,47.90
2019-05-18T20:51:42.646Z,42.45
2019-05-18T20:54:11.086Z,60.47
2019-05-18T20:56:39.493Z,119.90
2019-05-18T20:59:07.920Z,110.45
2019-05-18T21:01:36.323Z,101.92
2019-05-18T21:04:04.752Z,85.83
2019-05-18T21:06:33.153Z,95.27
2019-05-18T21:09:01.615Z,89.35
2019-05-18T21:11:30.013Z,77.67
2019-05-18T21:13:58.516Z,61.15
2019-05-18T21:16:26.939Z,44.77
2019-05-18T21:18:55.360Z,33.75
2019-05-18T21:21:26.010Z,27.85
2019-05-18T21:23:53.906Z,18.05
2019-05-18T21:26:22.306Z,12.43
2019-05-18T21:28:57.574Z,11.05
2019-05-18T21:31:20.908Z,8.98
2019-05-18T21:33:49.589Z,9.65
2019-05-18T21:36:17.990Z,7.60
2019-05-18T21:38:46.401Z,9.78
2019-05-18T21:41:14.819Z,6.78
2019-05-18T21:43:43.244Z,7.05
2019-05-18T21:46:11.658Z,7.28
2019-05-18T21:48:40.094Z,7.08
2019-05-18T21:51:08.735Z,6.75
2019-05-18T21:53:37.154Z,6.80
2019-05-18T21:56:05.555Z,6.50
2019-05-18T21:58:34.111Z,4.95
2019-05-18T22:01:02.676Z,5.65
2019-05-18T22:03:31.139Z,5.75
2019-05-18T22:05:59.607Z,6.35
2019-05-18T22:08:28.027Z,5.00
2019-05-18T22:10:56.423Z,6.25
2019-05-18T22:13:24.844Z,6.75
2019-05-18T22:16:12.584Z,6.57
2019-05-18T22:18:41.002Z,5.83
2019-05-18T22:21:09.417Z,5.35
2019-05-18T22:23:37.828Z,5.95
2019-05-18T22:26:06.235Z,5.90
2019-05-18T22:28:34.642Z,6.33
2019-05-18T22:31:03.120Z,5.97
2019-05-18T22:33:31.611Z,10.98
2019-05-18T22:36:00.069Z,7.60
2019-05-18T22:38:28.551Z,6.75
2019-05-18T22:40:57.013Z,6.17
2019-05-18T22:43:25.772Z,6.30
2019-05-18T22:45:54.179Z,6.85
2019-05-18T22:48:22.619Z,7.85
2019-05-18T22:50:51.090Z,6.87
2019-05-18T22:53:19.597Z,7.37
2019-05-18T22:55:48.020Z,7.12
2019-05-18T22:58:16.425Z,8.48
2019-05-18T23:00:44.837Z,8.53
2019-05-18T23:03:13.234Z,8.10
2019-05-18T23:05:42.570Z,6.70
2019-05-18T23:08:10.985Z,6.87
2019-05-18T23:10:39.558Z,6.63
2019-05-18T23:13:07.970Z,8.28
2019-05-18T23:15:36.377Z,7.50
2019-05-18T23:18:04.782Z,7.50
2019-05-18T23:20:33.209Z,7.92
2019-05-18T23:23:01.618Z,8.50
2019-05-18T23:25:30.099Z,8.45
2019-05-18T23:27:58.590Z,9.10
2019-05-18T23:30:26.983Z,9.60
2019-05-18T23:32:55.688Z,9.90
2019-05-18T23:35:24.090Z,9.27
2019-05-18T23:37:52.524Z,8.23
2019-05-18T23:40:21.146Z,10.05
2019-05-18T23:42:49.583Z,9.80
2019-05-18T23:45:18.055Z,11.08
2019-05-18T23:47:46.457Z,8.73
2019-05-18T23:50:15.210Z,9.38
2019-05-18T23:52:43.619Z,9.23
2019-05-18T23:55:12.586Z,10.75
2019-05-18T23:57:40.970Z,8.68
